Reminderville, Ohio
Current Conditions -  °F | °C
As of 7:18 AM on Saturday 25 Oct 2014 (Local Time) from KPOV Reporting Station
Scattered Clouds Scattered Clouds  
Wind Chill: 47°   Ceiling: Unl
Heat Index: 47°   Visibility: 10mi
Dew Point: 40°   Wind: 0mph
Humidity: 78%   Direction: NA
Pressure: 29.92"   Gusts: NA
Location:  41.3188°N, 81.3369°W
Report Text: KPOV 251118Z AUTO 00000KT 10SM SCT032 08/05 A2992 RMK AO2 T00820045
Loading
Personal Weather Stations






























Interactive Weather Map
Tropical Storm Tracking
New forecast layout! Learn more

10-Day Weather Forecast

Advertisements
Track Severe Weather on mobile